sensor_id;sensor_type;location;lat;lon;timestamp;pressure;altitude;pressure_sealevel;temperature;humidity
19112;BME280;9688;51.906;8.376;2023-05-20T00:00:45;101509.63;;;15.06;59.38
19112;BME280;9688;51.906;8.376;2023-05-20T00:03:32;101517.47;;;15.09;58.98
19112;BME280;9688;51.906;8.376;2023-05-20T00:06:19;101520.00;;;15.12;59.78
19112;BME280;9688;51.906;8.376;2023-05-20T00:09:05;101516.34;;;15.14;58.90
19112;BME280;9688;51.906;8.376;2023-05-20T00:11:50;101515.41;;;15.15;59.20
19112;BME280;9688;51.906;8.376;2023-05-20T00:14:37;101518.88;;;15.17;58.72
19112;BME280;9688;51.906;8.376;2023-05-20T00:17:23;101513.41;;;15.21;58.88
19112;BME280;9688;51.906;8.376;2023-05-20T00:20:17;101519.59;;;15.21;58.96
19112;BME280;9688;51.906;8.376;2023-05-20T00:23:04;101516.06;;;15.21;58.83
19112;BME280;9688;51.906;8.376;2023-05-20T00:25:50;101516.06;;;15.21;58.97
19112;BME280;9688;51.906;8.376;2023-05-20T00:28:36;101518.69;;;15.22;59.17
19112;BME280;9688;51.906;8.376;2023-05-20T00:31:22;101518.72;;;15.21;58.81
19112;BME280;9688;51.906;8.376;2023-05-20T00:34:08;101515.22;;;15.20;59.13
19112;BME280;9688;51.906;8.376;2023-05-20T00:36:55;101515.25;;;15.18;59.07
19112;BME280;9688;51.906;8.376;2023-05-20T00:39:42;101517.06;;;15.18;59.08
19112;BME280;9688;51.906;8.376;2023-05-20T00:42:29;101520.72;;;15.15;59.21
19112;BME280;9688;51.906;8.376;2023-05-20T00:45:15;101515.63;;;15.11;59.47
19112;BME280;9688;51.906;8.376;2023-05-20T00:48:01;101505.00;;;15.09;59.45
19112;BME280;9688;51.906;8.376;2023-05-20T00:50:47;101504.28;;;15.06;59.89
19112;BME280;9688;51.906;8.376;2023-05-20T00:53:35;101511.47;;;15.04;59.51
19112;BME280;9688;51.906;8.376;2023-05-20T00:56:22;101507.13;;;15.01;59.97
19112;BME280;9688;51.906;8.376;2023-05-20T00:59:08;101511.66;;;14.99;60.16
19112;BME280;9688;51.906;8.376;2023-05-20T01:01:56;101509.94;;;14.98;60.04
19112;BME280;9688;51.906;8.376;2023-05-20T01:04:41;101507.28;;;14.98;60.46
19112;BME280;9688;51.906;8.376;2023-05-20T01:07:30;101506.41;;;14.98;60.43
19112;BME280;9688;51.906;8.376;2023-05-20T01:10:17;101506.47;;;14.96;60.44
19112;BME280;9688;51.906;8.376;2023-05-20T01:13:10;101514.53;;;14.94;60.68
19112;BME280;9688;51.906;8.376;2023-05-20T01:15:59;101517.47;;;14.88;60.94
19112;BME280;9688;51.906;8.376;2023-05-20T01:18:46;101512.38;;;14.82;61.17
19112;BME280;9688;51.906;8.376;2023-05-20T01:21:33;101508.94;;;14.80;61.31
19112;BME280;9688;51.906;8.376;2023-05-20T01:24:22;101504.78;;;14.73;61.64
19112;BME280;9688;51.906;8.376;2023-05-20T01:27:08;101501.44;;;14.68;61.89
19112;BME280;9688;51.906;8.376;2023-05-20T01:29:54;101500.63;;;14.66;62.13
19112;BME280;9688;51.906;8.376;2023-05-20T01:32:45;101502.56;;;14.62;62.10
19112;BME280;9688;51.906;8.376;2023-05-20T01:35:33;101504.63;;;14.56;62.83
19112;BME280;9688;51.906;8.376;2023-05-20T01:38:20;101506.69;;;14.47;62.92
19112;BME280;9688;51.906;8.376;2023-05-20T01:41:08;101503.38;;;14.41;62.91
19112;BME280;9688;51.906;8.376;2023-05-20T01:43:56;101499.13;;;14.37;63.25
19112;BME280;9688;51.906;8.376;2023-05-20T01:46:41;101490.34;;;14.35;63.62
19112;BME280;9688;51.906;8.376;2023-05-20T01:49:33;101494.94;;;14.31;63.85
19112;BME280;9688;51.906;8.376;2023-05-20T01:52:18;101502.09;;;14.29;63.86
19112;BME280;9688;51.906;8.376;2023-05-20T01:55:05;101489.78;;;14.26;64.06
19112;BME280;9688;51.906;8.376;2023-05-20T01:57:53;101491.66;;;14.24;64.96
19112;BME280;9688;51.906;8.376;2023-05-20T02:00:39;101485.44;;;14.24;64.43
19112;BME280;9688;51.906;8.376;2023-05-20T02:03:25;101495.34;;;14.20;64.69
19112;BME280;9688;51.906;8.376;2023-05-20T02:06:11;101492.75;;;14.19;64.60
19112;BME280;9688;51.906;8.376;2023-05-20T02:08:56;101499.13;;;14.15;65.10
19112;BME280;9688;51.906;8.376;2023-05-20T02:11:42;101493.06;;;14.11;65.05
19112;BME280;9688;51.906;8.376;2023-05-20T02:14:30;101494.88;;;14.11;65.31
19112;BME280;9688;51.906;8.376;2023-05-20T02:17:16;101494.88;;;14.11;64.91
19112;BME280;9688;51.906;8.376;2023-05-20T02:20:05;101490.53;;;14.08;65.39
19112;BME280;9688;51.906;8.376;2023-05-20T02:22:52;101498.66;;;14.03;65.48
19112;BME280;9688;51.906;8.376;2023-05-20T02:25:37;101488.22;;;13.99;65.79
19112;BME280;9688;51.906;8.376;2023-05-20T02:28:24;101486.59;;;13.95;66.23
19112;BME280;9688;51.906;8.376;2023-05-20T02:31:11;101488.53;;;13.91;66.45
19112;BME280;9688;51.906;8.376;2023-05-20T02:33:58;101488.63;;;13.88;66.37
19112;BME280;9688;51.906;8.376;2023-05-20T02:36:44;101492.34;;;13.84;66.53
19112;BME280;9688;51.906;8.376;2023-05-20T02:39:30;101480.06;;;13.80;66.79
19112;BME280;9688;51.906;8.376;2023-05-20T02:42:16;101485.50;;;13.77;66.93
19112;BME280;9688;51.906;8.376;2023-05-20T02:45:03;101476.78;;;13.73;66.98
19112;BME280;9688;51.906;8.376;2023-05-20T02:47:51;101480.38;;;13.72;67.30
19112;BME280;9688;51.906;8.376;2023-05-20T02:50:37;101477.88;;;13.68;67.25
19112;BME280;9688;51.906;8.376;2023-05-20T02:53:24;101480.66;;;13.65;67.74
19112;BME280;9688;51.906;8.376;2023-05-20T02:56:10;101480.78;;;13.61;67.27
19112;BME280;9688;51.906;8.376;2023-05-20T02:58:56;101481.75;;;13.59;67.48
19112;BME280;9688;51.906;8.376;2023-05-20T03:01:42;101481.81;;;13.57;67.99
19112;BME280;9688;51.906;8.376;2023-05-20T03:04:29;101475.69;;;13.55;67.72
19112;BME280;9688;51.906;8.376;2023-05-20T03:07:15;101470.50;;;13.52;68.40
19112;BME280;9688;51.906;8.376;2023-05-20T03:10:06;101472.38;;;13.49;68.08
19112;BME280;9688;51.906;8.376;2023-05-20T03:12:52;101473.38;;;13.46;68.60
19112;BME280;9688;51.906;8.376;2023-05-20T03:15:39;101475.16;;;13.46;68.67
19112;BME280;9688;51.906;8.376;2023-05-20T03:18:25;101474.34;;;13.44;68.62
19112;BME280;9688;51.906;8.376;2023-05-20T03:21:12;101478.03;;;13.39;69.22
19112;BME280;9688;51.906;8.376;2023-05-20T03:23:58;101481.69;;;13.37;69.03
19112;BME280;9688;51.906;8.376;2023-05-20T03:26:44;101493.28;;;13.34;69.11
19112;BME280;9688;51.906;8.376;2023-05-20T03:29:30;101488.28;;;13.25;69.81
19112;BME280;9688;51.906;8.376;2023-05-20T03:32:16;101486.88;;;13.13;70.30
19112;BME280;9688;51.906;8.376;2023-05-20T03:35:03;101486.34;;;13.04;70.18
19112;BME280;9688;51.906;8.376;2023-05-20T03:37:50;101494.44;;;13.01;71.03
19112;BME280;9688;51.906;8.376;2023-05-20T03:40:36;101494.47;;;12.99;70.52
19112;BME280;9688;51.906;8.376;2023-05-20T03:43:22;101500.75;;;12.97;71.28
19112;BME280;9688;51.906;8.376;2023-05-20T03:46:08;101494.66;;;12.94;70.91
19112;BME280;9688;51.906;8.376;2023-05-20T03:48:54;101496.59;;;12.89;71.62
19112;BME280;9688;51.906;8.376;2023-05-20T03:51:40;101492.28;;;12.85;71.98
19112;BME280;9688;51.906;8.376;2023-05-20T03:54:27;101482.72;;;12.81;71.71
19112;BME280;9688;51.906;8.376;2023-05-20T03:57:14;101478.47;;;12.76;72.67
19112;BME280;9688;51.906;8.376;2023-05-20T04:00:05;101476.72;;;12.75;72.26
19112;BME280;9688;51.906;8.376;2023-05-20T04:02:55;101482.22;;;12.70;72.54
19112;BME280;9688;51.906;8.376;2023-05-20T04:05:41;101483.28;;;12.64;72.46
19112;BME280;9688;51.906;8.376;2023-05-20T04:08:27;101483.31;;;12.63;73.40
19112;BME280;9688;51.906;8.376;2023-05-20T04:11:15;101485.81;;;12.67;73.23
19112;BME280;9688;51.906;8.376;2023-05-20T04:14:01;101477.66;;;12.73;73.16
19112;BME280;9688;51.906;8.376;2023-05-20T04:16:47;101475.00;;;12.73;72.96
19112;BME280;9688;51.906;8.376;2023-05-20T04:19:33;101483.69;;;12.79;73.19
19112;BME280;9688;51.906;8.376;2023-05-20T04:22:20;101481.84;;;12.81;73.08
19112;BME280;9688;51.906;8.376;2023-05-20T04:25:07;101480.06;;;12.81;72.33
19112;BME280;9688;51.906;8.376;2023-05-20T04:27:54;101480.00;;;12.83;72.58
19112;BME280;9688;51.906;8.376;2023-05-20T04:30:40;101481.16;;;13.01;72.42
19112;BME280;9688;51.906;8.376;2023-05-20T04:33:28;101481.53;;;13.65;70.29
19112;BME280;9688;51.906;8.376;2023-05-20T04:36:14;101473.69;;;14.07;69.68
19112;BME280;9688;51.906;8.376;2023-05-20T04:39:01;101485.41;;;14.69;67.66
19112;BME280;9688;51.906;8.376;2023-05-20T04:41:46;101479.91;;;15.15;66.01
19112;BME280;9688;51.906;8.376;2023-05-20T04:44:34;101478.03;;;15.37;65.44
19112;BME280;9688;51.906;8.376;2023-05-20T04:47:21;101472.31;;;14.85;66.88
19112;BME280;9688;51.906;8.376;2023-05-20T04:50:09;101476.16;;;14.58;68.14
19112;BME280;9688;51.906;8.376;2023-05-20T04:52:55;101474.94;;;14.43;68.52
19112;BME280;9688;51.906;8.376;2023-05-20T04:55:41;101477.41;;;14.47;68.46
19112;BME280;9688;51.906;8.376;2023-05-20T04:58:27;101476.13;;;14.36;68.67
19112;BME280;9688;51.906;8.376;2023-05-20T05:01:16;101477.69;;;14.41;68.44
19112;BME280;9688;51.906;8.376;2023-05-20T05:04:03;101465.66;;;14.75;67.32
19112;BME280;9688;51.906;8.376;2023-05-20T05:06:49;101465.88;;;14.91;67.02
19112;BME280;9688;51.906;8.376;2023-05-20T05:09:35;101468.00;;;14.83;67.11
19112;BME280;9688;51.906;8.376;2023-05-20T05:12:21;101461.59;;;14.66;67.81
19112;BME280;9688;51.906;8.376;2023-05-20T05:15:07;101469.75;;;14.62;67.98
19112;BME280;9688;51.906;8.376;2023-05-20T05:17:55;101456.31;;;14.65;67.76
19112;BME280;9688;51.906;8.376;2023-05-20T05:20:41;101463.47;;;14.85;67.25
19112;BME280;9688;51.906;8.376;2023-05-20T05:23:27;101466.25;;;14.82;67.39
19112;BME280;9688;51.906;8.376;2023-05-20T05:26:13;101473.91;;;14.69;67.83
19112;BME280;9688;51.906;8.376;2023-05-20T05:28:59;101467.97;;;14.62;68.08
19112;BME280;9688;51.906;8.376;2023-05-20T05:31:45;101473.94;;;14.45;68.27
19112;BME280;9688;51.906;8.376;2023-05-20T05:34:32;101467.25;;;14.35;68.92
19112;BME280;9688;51.906;8.376;2023-05-20T05:37:18;101469.38;;;14.27;69.42
19112;BME280;9688;51.906;8.376;2023-05-20T05:40:06;101474.31;;;14.14;69.11
19112;BME280;9688;51.906;8.376;2023-05-20T05:42:52;101481.00;;;14.02;69.94
19112;BME280;9688;51.906;8.376;2023-05-20T05:45:38;101474.06;;;13.98;69.73
19112;BME280;9688;51.906;8.376;2023-05-20T05:48:25;101478.63;;;13.95;70.14
19112;BME280;9688;51.906;8.376;2023-05-20T05:51:13;101473.13;;;13.99;70.26
19112;BME280;9688;51.906;8.376;2023-05-20T05:53:59;101474.00;;;14.00;70.37
19112;BME280;9688;51.906;8.376;2023-05-20T05:56:45;101473.06;;;14.01;70.50
19112;BME280;9688;51.906;8.376;2023-05-20T05:59:31;101477.28;;;14.06;70.75
19112;BME280;9688;51.906;8.376;2023-05-20T06:02:17;101467.50;;;14.07;70.41
19112;BME280;9688;51.906;8.376;2023-05-20T06:05:04;101472.66;;;14.12;70.44
19112;BME280;9688;51.906;8.376;2023-05-20T06:07:52;101468.03;;;14.17;70.48
19112;BME280;9688;51.906;8.376;2023-05-20T06:10:40;101474.31;;;14.14;70.86
19112;BME280;9688;51.906;8.376;2023-05-20T06:13:26;101473.13;;;14.21;70.72
19112;BME280;9688;51.906;8.376;2023-05-20T06:16:12;101468.19;;;14.34;70.54
19112;BME280;9688;51.906;8.376;2023-05-20T06:18:57;101465.38;;;14.39;70.71
19112;BME280;9688;51.906;8.376;2023-05-20T06:21:43;101464.13;;;14.47;70.12
19112;BME280;9688;51.906;8.376;2023-05-20T06:24:33;101466.28;;;14.60;70.12
19112;BME280;9688;51.906;8.376;2023-05-20T06:27:19;101466.16;;;14.63;70.19
19112;BME280;9688;51.906;8.376;2023-05-20T06:30:06;101455.16;;;14.72;69.96
19112;BME280;9688;51.906;8.376;2023-05-20T06:32:52;101461.75;;;14.84;69.85
19112;BME280;9688;51.906;8.376;2023-05-20T06:35:38;101461.19;;;14.96;69.76
19112;BME280;9688;51.906;8.376;2023-05-20T06:38:24;101457.16;;;15.08;68.95
19112;BME280;9688;51.906;8.376;2023-05-20T06:41:12;101459.88;;;15.06;69.31
19112;BME280;9688;51.906;8.376;2023-05-20T06:43:57;101461.50;;;15.10;69.41
19112;BME280;9688;51.906;8.376;2023-05-20T06:46:43;101464.06;;;15.12;69.25
19112;BME280;9688;51.906;8.376;2023-05-20T06:49:29;101458.28;;;15.23;69.27
19112;BME280;9688;51.906;8.376;2023-05-20T06:52:15;101453.38;;;15.32;68.60
19112;BME280;9688;51.906;8.376;2023-05-20T06:55:02;101458.22;;;15.43;68.72
19112;BME280;9688;51.906;8.376;2023-05-20T06:57:49;101450.84;;;15.50;68.75
19112;BME280;9688;51.906;8.376;2023-05-20T07:00:35;101449.25;;;15.65;68.28
19112;BME280;9688;51.906;8.376;2023-05-20T07:03:22;101438.94;;;15.77;68.08
19112;BME280;9688;51.906;8.376;2023-05-20T07:06:08;101447.44;;;15.86;68.35
19112;BME280;9688;51.906;8.376;2023-05-20T07:08:53;101442.97;;;15.86;67.75
19112;BME280;9688;51.906;8.376;2023-05-20T07:11:40;101438.56;;;15.85;67.99
19112;BME280;9688;51.906;8.376;2023-05-20T07:14:27;101430.78;;;15.80;68.11
19112;BME280;9688;51.906;8.376;2023-05-20T07:17:12;101418.88;;;15.88;68.58
19112;BME280;9688;51.906;8.376;2023-05-20T07:19:58;101417.66;;;15.95;68.36
19112;BME280;9688;51.906;8.376;2023-05-20T07:22:44;101419.88;;;16.04;68.62
19112;BME280;9688;51.906;8.376;2023-05-20T07:25:31;101424.53;;;16.18;68.24
19112;BME280;9688;51.906;8.376;2023-05-20T07:28:20;101422.03;;;16.32;68.31
19112;BME280;9688;51.906;8.376;2023-05-20T07:31:08;101413.34;;;16.46;67.86
19112;BME280;9688;51.906;8.376;2023-05-20T07:33:55;101414.72;;;16.55;67.78
19112;BME280;9688;51.906;8.376;2023-05-20T07:36:40;101411.09;;;16.73;67.78
19112;BME280;9688;51.906;8.376;2023-05-20T07:39:26;101412.84;;;16.91;67.57
19112;BME280;9688;51.906;8.376;2023-05-20T07:42:13;101399.97;;;17.00;67.14
19112;BME280;9688;51.906;8.376;2023-05-20T07:45:00;101397.25;;;17.17;66.70
19112;BME280;9688;51.906;8.376;2023-05-20T07:47:55;101394.34;;;17.37;66.30
19112;BME280;9688;51.906;8.376;2023-05-20T07:50:43;101388.41;;;17.48;65.50
19112;BME280;9688;51.906;8.376;2023-05-20T07:53:28;101383.50;;;17.56;65.81
19112;BME280;9688;51.906;8.376;2023-05-20T07:56:15;101384.38;;;17.73;65.39
19112;BME280;9688;51.906;8.376;2023-05-20T07:59:01;101388.19;;;17.84;64.61
19112;BME280;9688;51.906;8.376;2023-05-20T08:01:47;101388.63;;;17.93;64.64
19112;BME280;9688;51.906;8.376;2023-05-20T08:04:35;101382.41;;;17.92;64.47
19112;BME280;9688;51.906;8.376;2023-05-20T08:07:21;101380.28;;;17.99;63.95
19112;BME280;9688;51.906;8.376;2023-05-20T08:10:08;101389.41;;;18.11;63.35
19112;BME280;9688;51.906;8.376;2023-05-20T08:12:55;101381.69;;;18.20;63.17
19112;BME280;9688;51.906;8.376;2023-05-20T08:15:42;101384.53;;;18.33;62.85
19112;BME280;9688;51.906;8.376;2023-05-20T08:18:28;101388.88;;;18.50;61.92
19112;BME280;9688;51.906;8.376;2023-05-20T08:21:16;101380.28;;;18.59;62.22
19112;BME280;9688;51.906;8.376;2023-05-20T08:24:05;101378.44;;;18.76;61.56
19112;BME280;9688;51.906;8.376;2023-05-20T08:26:51;101382.09;;;18.89;61.53
19112;BME280;9688;51.906;8.376;2023-05-20T08:29:38;101372.75;;;18.82;61.19
19112;BME280;9688;51.906;8.376;2023-05-20T08:32:24;101370.41;;;18.90;60.93
19112;BME280;9688;51.906;8.376;2023-05-20T08:35:10;101375.50;;;19.09;60.27
19112;BME280;9688;51.906;8.376;2023-05-20T08:37:58;101367.41;;;19.10;59.91
19112;BME280;9688;51.906;8.376;2023-05-20T08:40:45;101369.59;;;19.18;59.71
19112;BME280;9688;51.906;8.376;2023-05-20T08:43:31;101370.38;;;19.34;59.23
19112;BME280;9688;51.906;8.376;2023-05-20T08:46:18;101360.34;;;19.65;58.56
19112;BME280;9688;51.906;8.376;2023-05-20T08:49:04;101362.47;;;20.01;57.75
19112;BME280;9688;51.906;8.376;2023-05-20T08:51:51;101365.66;;;20.21;57.19
19112;BME280;9688;51.906;8.376;2023-05-20T08:54:43;101355.66;;;20.23;57.01
19112;BME280;9688;51.906;8.376;2023-05-20T08:57:31;101358.03;;;20.15;56.74
19112;BME280;9688;51.906;8.376;2023-05-20T09:00:19;101363.38;;;20.15;56.85
19112;BME280;9688;51.906;8.376;2023-05-20T09:03:07;101361.91;;;20.23;56.25
19112;BME280;9688;51.906;8.376;2023-05-20T09:06:02;101365.31;;;20.25;56.13
19112;BME280;9688;51.906;8.376;2023-05-20T09:08:49;101366.47;;;20.48;55.41
19112;BME280;9688;51.906;8.376;2023-05-20T09:11:40;101363.84;;;20.74;55.01
19112;BME280;9688;51.906;8.376;2023-05-20T09:14:27;101366.75;;;20.84;54.62
19112;BME280;9688;51.906;8.376;2023-05-20T09:17:13;101366.44;;;20.88;54.25
19112;BME280;9688;51.906;8.376;2023-05-20T09:19:59;101359.75;;;20.94;53.86
19112;BME280;9688;51.906;8.376;2023-05-20T09:22:45;101363.50;;;21.17;53.44
19112;BME280;9688;51.906;8.376;2023-05-20T09:25:32;101365.44;;;21.28;53.00
19112;BME280;9688;51.906;8.376;2023-05-20T09:28:23;101352.56;;;21.20;53.05
19112;BME280;9688;51.906;8.376;2023-05-20T09:31:12;101355.56;;;21.15;53.10
19112;BME280;9688;51.906;8.376;2023-05-20T09:33:59;101357.53;;;21.01;53.30
19112;BME280;9688;51.906;8.376;2023-05-20T09:36:48;101352.78;;;20.91;53.46
19112;BME280;9688;51.906;8.376;2023-05-20T09:39:43;101336.22;;;20.85;53.53
19112;BME280;9688;51.906;8.376;2023-05-20T09:42:37;101343.97;;;20.77;53.71
19112;BME280;9688;51.906;8.376;2023-05-20T09:45:26;101330.84;;;20.59;54.08
19112;BME280;9688;51.906;8.376;2023-05-20T09:48:13;101329.09;;;20.45;54.67
19112;BME280;9688;51.906;8.376;2023-05-20T09:51:00;101344.75;;;20.39;54.75
19112;BME280;9688;51.906;8.376;2023-05-20T09:53:47;101345.38;;;20.30;55.18
19112;BME280;9688;51.906;8.376;2023-05-20T09:56:35;101340.34;;;20.38;55.04
19112;BME280;9688;51.906;8.376;2023-05-20T09:59:22;101346.38;;;20.41;54.71
19112;BME280;9688;51.906;8.376;2023-05-20T10:02:11;101333.78;;;20.29;54.45
19112;BME280;9688;51.906;8.376;2023-05-20T10:05:03;101337.19;;;20.31;54.32
19112;BME280;9688;51.906;8.376;2023-05-20T10:08:29;101337.03;;;20.34;54.09
19112;BME280;9688;51.906;8.376;2023-05-20T10:11:25;101349.81;;;20.43;53.76
19112;BME280;9688;51.906;8.376;2023-05-20T10:14:25;101334.81;;;20.54;53.67
19112;BME280;9688;51.906;8.376;2023-05-20T10:17:18;101341.44;;;20.48;53.85
19112;BME280;9688;51.906;8.376;2023-05-20T10:20:08;101340.13;;;20.41;53.74
19112;BME280;9688;51.906;8.376;2023-05-20T10:22:57;101332.41;;;20.49;53.62
19112;BME280;9688;51.906;8.376;2023-05-20T10:25:49;101336.63;;;20.53;53.80
19112;BME280;9688;51.906;8.376;2023-05-20T10:28:37;101334.28;;;20.61;53.82
19112;BME280;9688;51.906;8.376;2023-05-20T10:31:25;101335.34;;;20.59;53.52
19112;BME280;9688;51.906;8.376;2023-05-20T10:34:15;101329.50;;;20.52;53.57
19112;BME280;9688;51.906;8.376;2023-05-20T10:37:02;101333.69;;;20.43;53.81
19112;BME280;9688;51.906;8.376;2023-05-20T10:39:48;101324.66;;;20.44;53.88
19112;BME280;9688;51.906;8.376;2023-05-20T10:42:34;101325.34;;;20.48;53.60
19112;BME280;9688;51.906;8.376;2023-05-20T10:45:24;101320.59;;;20.52;53.68
19112;BME280;9688;51.906;8.376;2023-05-20T10:48:19;101323.50;;;20.48;53.99
19112;BME280;9688;51.906;8.376;2023-05-20T10:51:13;101312.44;;;20.53;53.78
19112;BME280;9688;51.906;8.376;2023-05-20T10:54:02;101310.34;;;20.31;54.22
19112;BME280;9688;51.906;8.376;2023-05-20T10:56:52;101316.56;;;20.19;54.81
19112;BME280;9688;51.906;8.376;2023-05-20T10:59:38;101314.53;;;20.22;54.81
19112;BME280;9688;51.906;8.376;2023-05-20T11:02:26;101305.72;;;20.33;54.40
19112;BME280;9688;51.906;8.376;2023-05-20T11:05:12;101307.97;;;20.54;53.84
19112;BME280;9688;51.906;8.376;2023-05-20T11:08:04;101306.78;;;20.58;53.82
19112;BME280;9688;51.906;8.376;2023-05-20T11:10:51;101309.03;;;20.64;54.02
19112;BME280;9688;51.906;8.376;2023-05-20T11:13:37;101302.78;;;20.63;53.71
19112;BME280;9688;51.906;8.376;2023-05-20T11:16:24;101302.66;;;20.52;53.67
19112;BME280;9688;51.906;8.376;2023-05-20T11:19:13;101294.91;;;20.47;53.74
19112;BME280;9688;51.906;8.376;2023-05-20T11:22:00;101293.94;;;20.48;53.72
19112;BME280;9688;51.906;8.376;2023-05-20T11:24:47;101287.72;;;20.48;54.24
19112;BME280;9688;51.906;8.376;2023-05-20T11:27:33;101288.13;;;20.42;54.66
19112;BME280;9688;51.906;8.376;2023-05-20T11:30:20;101284.03;;;20.36;54.91
19112;BME280;9688;51.906;8.376;2023-05-20T11:33:05;101285.53;;;20.27;55.52
19112;BME280;9688;51.906;8.376;2023-05-20T11:35:53;101295.41;;;20.27;55.56
19112;BME280;9688;51.906;8.376;2023-05-20T11:38:40;101294.34;;;20.30;55.50
19112;BME280;9688;51.906;8.376;2023-05-20T11:41:29;101294.13;;;20.33;55.50
19112;BME280;9688;51.906;8.376;2023-05-20T11:44:19;101289.75;;;20.32;55.50
19112;BME280;9688;51.906;8.376;2023-05-20T11:47:05;101292.44;;;20.32;55.33
19112;BME280;9688;51.906;8.376;2023-05-20T11:49:51;101288.22;;;20.27;55.42
19112;BME280;9688;51.906;8.376;2023-05-20T11:52:40;101292.31;;;20.33;55.79
19112;BME280;9688;51.906;8.376;2023-05-20T11:55:30;101295.97;;;20.45;55.08
19112;BME280;9688;51.906;8.376;2023-05-20T11:58:20;101283.44;;;20.58;54.94
19112;BME280;9688;51.906;8.376;2023-05-20T12:01:06;101278.72;;;20.75;54.52
19112;BME280;9688;51.906;8.376;2023-05-20T12:03:52;101278.94;;;20.71;54.36
19112;BME280;9688;51.906;8.376;2023-05-20T12:06:39;101271.84;;;20.70;54.74
19112;BME280;9688;51.906;8.376;2023-05-20T12:09:26;101269.69;;;20.63;54.69
19112;BME280;9688;51.906;8.376;2023-05-20T12:12:12;101257.03;;;20.65;54.89
19112;BME280;9688;51.906;8.376;2023-05-20T12:15:01;101254.53;;;20.75;54.83
19112;BME280;9688;51.906;8.376;2023-05-20T12:17:50;101238.69;;;20.96;54.23
19112;BME280;9688;51.906;8.376;2023-05-20T12:20:36;101252.69;;;21.25;53.50
19112;BME280;9688;51.906;8.376;2023-05-20T12:23:23;101238.69;;;21.45;53.28
19112;BME280;9688;51.906;8.376;2023-05-20T12:26:10;101240.41;;;21.46;52.83
19112;BME280;9688;51.906;8.376;2023-05-20T12:28:57;101241.72;;;21.41;52.90
19112;BME280;9688;51.906;8.376;2023-05-20T12:31:46;101237.94;;;21.43;52.58
19112;BME280;9688;51.906;8.376;2023-05-20T12:34:31;101228.88;;;21.44;52.55
19112;BME280;9688;51.906;8.376;2023-05-20T12:37:19;101227.31;;;21.29;52.69
19112;BME280;9688;51.906;8.376;2023-05-20T12:40:07;101223.91;;;21.14;53.13
19112;BME280;9688;51.906;8.376;2023-05-20T12:42:54;101225.63;;;21.15;53.16
19112;BME280;9688;51.906;8.376;2023-05-20T12:45:43;101231.97;;;21.14;53.25
19112;BME280;9688;51.906;8.376;2023-05-20T12:48:31;101236.25;;;21.16;53.11
19112;BME280;9688;51.906;8.376;2023-05-20T12:51:17;101222.53;;;21.08;53.19
19112;BME280;9688;51.906;8.376;2023-05-20T12:54:05;101217.56;;;21.15;53.04
19112;BME280;9688;51.906;8.376;2023-05-20T12:56:53;101228.75;;;21.09;52.86
19112;BME280;9688;51.906;8.376;2023-05-20T12:59:40;101228.88;;;21.07;53.11
19112;BME280;9688;51.906;8.376;2023-05-20T13:02:37;101240.09;;;21.01;53.26
19112;BME280;9688;51.906;8.376;2023-05-20T13:05:29;101234.50;;;21.04;53.54
19112;BME280;9688;51.906;8.376;2023-05-20T13:08:19;101227.72;;;20.99;53.71
19112;BME280;9688;51.906;8.376;2023-05-20T13:11:08;101227.19;;;21.06;53.83
19112;BME280;9688;51.906;8.376;2023-05-20T13:13:58;101218.81;;;21.22;53.27
19112;BME280;9688;51.906;8.376;2023-05-20T13:16:45;101213.16;;;21.14;53.53
19112;BME280;9688;51.906;8.376;2023-05-20T13:19:33;101205.84;;;21.16;53.64
19112;BME280;9688;51.906;8.376;2023-05-20T13:22:20;101206.88;;;21.26;53.32
19112;BME280;9688;51.906;8.376;2023-05-20T13:25:07;101193.06;;;21.31;53.09
19112;BME280;9688;51.906;8.376;2023-05-20T13:27:54;101195.91;;;21.29;53.30
19112;BME280;9688;51.906;8.376;2023-05-20T13:30:41;101187.22;;;21.50;53.13
19112;BME280;9688;51.906;8.376;2023-05-20T13:33:30;101184.84;;;21.69;52.50
19112;BME280;9688;51.906;8.376;2023-05-20T13:36:19;101188.38;;;21.70;52.38
19112;BME280;9688;51.906;8.376;2023-05-20T13:39:09;101182.97;;;21.58;52.31
19112;BME280;9688;51.906;8.376;2023-05-20T13:41:56;101176.97;;;21.55;52.40
19112;BME280;9688;51.906;8.376;2023-05-20T13:44:45;101179.31;;;21.59;52.31
19112;BME280;9688;51.906;8.376;2023-05-20T13:47:33;101167.41;;;21.51;51.91
19112;BME280;9688;51.906;8.376;2023-05-20T13:50:20;101169.09;;;21.28;52.44
19112;BME280;9688;51.906;8.376;2023-05-20T13:53:06;101168.06;;;20.93;53.33
19112;BME280;9688;51.906;8.376;2023-05-20T13:55:57;101158.63;;;20.88;53.76
19112;BME280;9688;51.906;8.376;2023-05-20T13:58:43;101173.84;;;21.00;53.55
19112;BME280;9688;51.906;8.376;2023-05-20T14:01:29;101162.66;;;21.06;53.47
19112;BME280;9688;51.906;8.376;2023-05-20T14:04:17;101163.91;;;21.13;53.40
19112;BME280;9688;51.906;8.376;2023-05-20T14:07:05;101159.31;;;21.27;53.23
19112;BME280;9688;51.906;8.376;2023-05-20T14:09:51;101158.75;;;21.34;53.15
19112;BME280;9688;51.906;8.376;2023-05-20T14:12:39;101165.31;;;21.30;53.32
19112;BME280;9688;51.906;8.376;2023-05-20T14:15:33;101156.41;;;21.30;53.36
19112;BME280;9688;51.906;8.376;2023-05-20T14:18:19;101157.91;;;21.34;53.63
19112;BME280;9688;51.906;8.376;2023-05-20T14:21:05;101152.97;;;21.28;53.46
19112;BME280;9688;51.906;8.376;2023-05-20T14:23:51;101152.69;;;21.20;53.76
19112;BME280;9688;51.906;8.376;2023-05-20T14:26:37;101149.50;;;21.14;53.66
19112;BME280;9688;51.906;8.376;2023-05-20T14:29:24;101145.53;;;21.07;53.88
19112;BME280;9688;51.906;8.376;2023-05-20T14:32:11;101141.28;;;20.92;54.24
19112;BME280;9688;51.906;8.376;2023-05-20T14:34:58;101142.81;;;20.83;54.50
19112;BME280;9688;51.906;8.376;2023-05-20T14:37:44;101151.25;;;20.79;54.65
19112;BME280;9688;51.906;8.376;2023-05-20T14:40:31;101149.53;;;20.52;55.32
19112;BME280;9688;51.906;8.376;2023-05-20T14:43:17;101157.19;;;20.45;55.61
19112;BME280;9688;51.906;8.376;2023-05-20T14:46:06;101161.25;;;20.38;55.90